Time;durP1;ratioP1;P1;durP2;ratioP2;P2;SDS_P1;SDS_P2;PMS_P1;PMS_P2;Temp;Humidity;BMP_temperature;BMP_pressure;BME280_temperature;BME280_humidity;BME280_pressure;Samples;Min_cycle;Max_cycle;Signal;HPM_P1;HPM_P2
2023/11/12 00:00:41;;;;;;;6.60;4.35;;;17.10;67.20;;;;;;5124796;27;20566;-60
2023/11/12 00:03:07;;;;;;;6.88;4.22;;;17.10;67.20;;;;;;5112462;28;20640;-60
2023/11/12 00:05:32;;;;;;;5.85;4.10;;;17.10;67.20;;;;;;5114214;27;20683;-59
2023/11/12 00:07:58;;;;;;;6.55;4.03;;;17.10;67.30;;;;;;5123714;27;20201;-60
2023/11/12 00:10:23;;;;;;;6.28;4.43;;;17.10;67.30;;;;;;5117591;27;20169;-61
2023/11/12 00:12:49;;;;;;;5.88;4.47;;;17.10;67.30;;;;;;5120946;27;20180;-60
2023/11/12 00:15:14;;;;;;;6.55;3.80;;;17.10;67.40;;;;;;5113649;28;20177;-60
2023/11/12 00:17:42;;;;;;;7.80;4.72;;;17.00;68.20;;;;;;5119815;27;20255;-60
2023/11/12 00:20:12;;;;;;;7.38;4.50;;;17.00;67.50;;;;;;5132979;27;20521;-60
2023/11/12 00:22:40;;;;;;;6.75;4.22;;;17.00;67.40;;;;;;5133627;28;20178;-60
2023/11/12 00:25:09;;;;;;;7.00;4.25;;;17.00;67.50;;;;;;5118650;27;20182;-60
2023/11/12 00:27:35;;;;;;;6.45;3.75;;;17.00;67.50;;;;;;5132906;28;20220;-61
2023/11/12 00:30:01;;;;;;;8.27;3.72;;;17.00;67.40;;;;;;5121069;28;20249;-60
2023/11/12 00:32:28;;;;;;;6.75;4.13;;;17.00;67.40;;;;;;5112786;28;20214;-61
2023/11/12 00:34:53;;;;;;;7.10;4.32;;;17.00;67.50;;;;;;5112995;28;20534;-59
2023/11/12 00:37:19;;;;;;;4.90;3.38;;;16.90;67.50;;;;;;5111656;28;20181;-60
2023/11/12 00:39:45;;;;;;;5.88;3.80;;;16.90;67.60;;;;;;5112738;28;20177;-60
2023/11/12 00:42:10;;;;;;;5.63;4.10;;;16.90;67.60;;;;;;5123621;28;20179;-60
2023/11/12 00:44:37;;;;;;;5.80;3.60;;;16.90;67.60;;;;;;5133164;28;20178;-62
2023/11/12 00:47:03;;;;;;;6.03;4.30;;;16.90;67.60;;;;;;5133412;28;20231;-64
2023/11/12 00:49:28;;;;;;;5.30;3.55;;;16.90;67.60;;;;;;5133575;28;20218;-61
2023/11/12 00:51:54;;;;;;;4.97;3.65;;;16.90;67.70;;;;;;5133043;28;20180;-61
2023/11/12 00:54:19;;;;;;;7.32;4.10;;;16.90;67.70;;;;;;5133336;28;20169;-60
2023/11/12 00:56:45;;;;;;;9.07;4.00;;;16.80;67.80;;;;;;5128805;28;20176;-60
2023/11/12 00:59:10;;;;;;;5.80;4.10;;;16.80;67.80;;;;;;5132118;28;20179;-60
2023/11/12 01:01:36;;;;;;;4.70;3.97;;;16.80;67.40;;;;;;5125141;28;20703;-59
2023/11/12 01:04:02;;;;;;;5.00;4.07;;;16.80;67.80;;;;;;5127261;28;20165;-59
2023/11/12 01:06:27;;;;;;;6.90;4.07;;;16.80;67.90;;;;;;5131071;28;20200;-60
2023/11/12 01:08:53;;;;;;;8.77;4.20;;;16.80;67.80;;;;;;5124234;28;20173;-61
2023/11/12 01:11:18;;;;;;;5.70;3.85;;;16.80;67.90;;;;;;5116551;27;20169;-60
2023/11/12 01:13:44;;;;;;;6.13;3.88;;;16.80;67.90;;;;;;5130316;27;20168;-61
2023/11/12 01:16:09;;;;;;;6.63;3.97;;;16.80;67.80;;;;;;5136945;27;20170;-60
2023/11/12 01:18:35;;;;;;;6.78;3.70;;;16.70;67.70;;;;;;5123967;27;20236;-60
2023/11/12 01:21:03;;;;;;;7.80;4.15;;;16.70;67.30;;;;;;5134014;27;20222;-60
2023/11/12 01:23:28;;;;;;;7.25;3.75;;;16.70;67.70;;;;;;5127747;27;20233;-60
2023/11/12 01:25:54;;;;;;;5.88;3.47;;;16.70;67.50;;;;;;5116282;28;20170;-60
2023/11/12 01:28:20;;;;;;;5.45;3.70;;;16.70;67.40;;;;;;5128770;27;20260;-60
2023/11/12 01:30:46;;;;;;;5.65;3.60;;;16.70;67.40;;;;;;5136519;27;20217;-60
2023/11/12 01:33:11;;;;;;;5.50;3.42;;;16.70;67.90;;;;;;5136011;27;20172;-59
2023/11/12 01:35:40;;;;;;;4.47;3.22;;;16.70;67.80;;;;;;5136854;27;20177;-60
2023/11/12 01:38:05;;;;;;;4.53;3.40;;;16.70;67.80;;;;;;5136739;27;20176;-60
2023/11/12 01:40:37;;;;;;;6.10;3.97;;;16.60;67.40;;;;;;5122007;27;21032;-59
2023/11/12 01:43:02;;;;;;;6.43;3.63;;;16.60;67.50;;;;;;5115873;28;20177;-60
2023/11/12 01:45:28;;;;;;;4.50;3.22;;;16.60;67.30;;;;;;5116959;28;20540;-60
2023/11/12 01:47:53;;;;;;;5.20;3.72;;;16.60;67.50;;;;;;5115056;28;20679;-60
2023/11/12 01:50:19;;;;;;;6.18;3.53;;;16.60;67.30;;;;;;5115871;28;20165;-60
2023/11/12 01:52:44;;;;;;;4.68;3.55;;;16.60;67.30;;;;;;5116223;28;20173;-60
2023/11/12 01:55:10;;;;;;;4.57;3.50;;;16.60;67.10;;;;;;5079891;28;20169;-61
2023/11/12 01:57:37;;;;;;;5.05;3.40;;;16.60;67.70;;;;;;5122004;27;20168;-60
2023/11/12 02:00:10;;;;;;;5.10;3.65;;;16.60;67.60;;;;;;5117711;27;20178;-60
2023/11/12 02:02:37;;;;;;;5.57;3.40;;;16.60;67.40;;;;;;5135255;27;20166;-60
2023/11/12 02:05:08;;;;;;;5.80;3.28;;;16.60;67.50;;;;;;5136057;27;20173;-60
2023/11/12 02:07:37;;;;;;;4.00;2.90;;;16.60;67.10;;;;;;5135720;27;20212;-60
2023/11/12 02:10:13;;;;;;;4.53;3.22;;;16.50;67.00;;;;;;5116782;27;20657;-61
2023/11/12 02:12:46;;;;;;;6.35;3.67;;;16.50;66.70;;;;;;5136126;27;20270;-60
2023/11/12 02:15:14;;;;;;;6.10;3.83;;;16.50;66.70;;;;;;5135967;27;20172;-60
2023/11/12 02:17:41;;;;;;;4.32;3.35;;;16.50;67.30;;;;;;5116020;27;20242;-60
2023/11/12 02:20:08;;;;;;;3.63;3.22;;;16.50;67.10;;;;;;5115033;28;20177;-60
2023/11/12 02:22:34;;;;;;;5.80;3.35;;;16.50;67.00;;;;;;5120641;27;20173;-60
2023/11/12 02:25:01;;;;;;;4.15;3.08;;;16.40;66.90;;;;;;5120394;27;20172;-60
2023/11/12 02:27:27;;;;;;;4.43;3.65;;;16.50;66.90;;;;;;5120094;27;20238;-59
2023/11/12 02:29:53;;;;;;;3.58;3.25;;;16.50;66.90;;;;;;5119618;27;20170;-60
2023/11/12 02:32:19;;;;;;;5.03;3.30;;;16.40;66.80;;;;;;5117879;27;20189;-59
2023/11/12 02:34:45;;;;;;;4.18;3.08;;;16.40;66.70;;;;;;5123909;27;20632;-62
2023/11/12 02:37:11;;;;;;;4.22;2.95;;;16.40;66.80;;;;;;5125070;27;20569;-60
2023/11/12 02:39:37;;;;;;;4.65;3.67;;;16.40;66.80;;;;;;5115096;27;20214;-59
2023/11/12 02:42:02;;;;;;;3.33;3.03;;;16.40;66.70;;;;;;5127141;27;20176;-60
2023/11/12 02:44:28;;;;;;;3.75;2.88;;;16.40;66.80;;;;;;5114505;28;20180;-60
2023/11/12 02:46:54;;;;;;;4.15;2.95;;;16.40;66.80;;;;;;5122873;27;20535;-60
2023/11/12 02:49:49;;;;;;;3.33;2.80;;;16.30;66.80;;;;;;5134558;27;20307;-61
2023/11/12 02:52:14;;;;;;;4.78;2.88;;;16.40;66.70;;;;;;5099745;27;20176;-60
2023/11/12 02:54:40;;;;;;;3.38;2.97;;;16.40;66.80;;;;;;5135604;27;20204;-61
2023/11/12 02:57:05;;;;;;;3.88;2.90;;;16.30;66.60;;;;;;5134984;27;20558;-60
2023/11/12 02:59:31;;;;;;;4.07;3.10;;;16.30;66.70;;;;;;5122924;27;20181;-60
2023/11/12 03:01:57;;;;;;;4.28;2.95;;;16.30;66.80;;;;;;5114493;28;20173;-60
2023/11/12 03:04:22;;;;;;;3.30;3.00;;;16.30;66.80;;;;;;5114214;28;20169;-60
2023/11/12 03:06:48;;;;;;;3.58;2.90;;;16.30;66.90;;;;;;5113716;28;20201;-60
2023/11/12 03:09:14;;;;;;;4.63;3.17;;;16.30;66.90;;;;;;5131054;27;20183;-61
2023/11/12 03:11:39;;;;;;;3.33;2.80;;;16.30;67.00;;;;;;5134232;27;20660;-62
2023/11/12 03:14:06;;;;;;;4.70;3.25;;;16.20;66.70;;;;;;5129350;27;20177;-61
2023/11/12 03:16:31;;;;;;;3.97;2.83;;;16.20;66.60;;;;;;5125376;27;20184;-60
2023/11/12 03:18:57;;;;;;;4.20;2.60;;;16.20;66.70;;;;;;5125326;27;20862;-60
2023/11/12 03:21:23;;;;;;;3.13;2.83;;;16.20;66.70;;;;;;5120687;27;20184;-60
2023/11/12 03:23:49;;;;;;;4.63;2.78;;;16.20;66.70;;;;;;5133153;27;20202;-61
2023/11/12 03:26:14;;;;;;;3.35;2.97;;;16.20;66.70;;;;;;5126865;27;20173;-60
2023/11/12 03:28:40;;;;;;;3.42;2.55;;;16.20;66.80;;;;;;5114173;28;20176;-60
2023/11/12 03:31:06;;;;;;;3.50;2.55;;;16.20;66.60;;;;;;5113856;28;20180;-60
2023/11/12 03:33:31;;;;;;;3.50;2.55;;;16.20;66.40;;;;;;5113367;28;20177;-60
2023/11/12 03:35:57;;;;;;;3.83;2.85;;;16.20;66.50;;;;;;5113846;28;20169;-60
2023/11/12 03:38:24;;;;;;;4.03;2.72;;;16.20;66.50;;;;;;5119946;27;20252;-60
2023/11/12 03:40:50;;;;;;;2.95;2.70;;;16.20;66.70;;;;;;5132830;27;20755;-60
2023/11/12 03:43:16;;;;;;;2.80;2.60;;;16.20;66.70;;;;;;5133832;27;20654;-61
2023/11/12 03:45:41;;;;;;;4.68;2.95;;;16.20;66.70;;;;;;5134219;27;20176;-60
2023/11/12 03:48:10;;;;;;;2.97;2.60;;;16.10;66.70;;;;;;5126068;27;20230;-61
2023/11/12 03:50:36;;;;;;;3.10;2.33;;;16.10;66.50;;;;;;5113756;28;20169;-60
2023/11/12 03:53:01;;;;;;;3.33;2.83;;;16.10;66.60;;;;;;5125722;27;20173;-61
2023/11/12 03:55:27;;;;;;;3.17;2.55;;;16.10;66.50;;;;;;5113328;27;20177;-60
2023/11/12 03:57:53;;;;;;;2.58;2.35;;;16.20;66.80;;;;;;5122570;27;20216;-60
2023/11/12 04:00:18;;;;;;;2.92;2.50;;;16.10;66.60;;;;;;5133289;27;20180;-59
2023/11/12 04:02:44;;;;;;;3.22;2.70;;;16.10;66.60;;;;;;5128484;27;20658;-60
2023/11/12 04:05:09;;;;;;;3.38;2.67;;;16.10;66.40;;;;;;5119144;27;20181;-60
2023/11/12 04:07:35;;;;;;;3.35;3.05;;;16.10;66.40;;;;;;5124607;27;20208;-60
2023/11/12 04:10:00;;;;;;;2.67;2.47;;;16.10;66.50;;;;;;5119289;27;20713;-61
2023/11/12 04:12:26;;;;;;;2.95;2.42;;;16.10;66.60;;;;;;5124946;27;20646;-60
2023/11/12 04:14:52;;;;;;;2.67;2.47;;;16.10;66.50;;;;;;5121357;27;20173;-60
2023/11/12 04:17:17;;;;;;;2.72;2.45;;;16.10;66.70;;;;;;5119564;27;20190;-60
2023/11/12 04:19:43;;;;;;;2.95;2.58;;;16.10;66.60;;;;;;5125239;27;20620;-60
2023/11/12 04:22:09;;;;;;;3.85;2.47;;;16.10;66.70;;;;;;5114198;28;20267;-60
2023/11/12 04:24:34;;;;;;;2.60;2.40;;;16.10;66.60;;;;;;5116036;28;20623;-60
2023/11/12 04:27:00;;;;;;;2.90;2.55;;;16.10;66.60;;;;;;5112891;28;20208;-60
2023/11/12 04:29:26;;;;;;;2.60;2.40;;;16.10;66.90;;;;;;5117094;28;20659;-59
2023/11/12 04:31:52;;;;;;;3.10;2.70;;;16.10;66.60;;;;;;5132595;28;20194;-59
2023/11/12 04:34:18;;;;;;;3.15;2.63;;;16.00;66.50;;;;;;5131249;28;20263;-60
2023/11/12 04:36:44;;;;;;;2.95;2.75;;;16.00;66.50;;;;;;5115751;28;20213;-59
2023/11/12 04:39:09;;;;;;;2.72;2.53;;;16.00;66.50;;;;;;5125945;28;20176;-59
2023/11/12 04:41:35;;;;;;;2.75;2.38;;;16.10;66.60;;;;;;5116972;28;20176;-59
2023/11/12 04:44:00;;;;;;;2.88;2.10;;;16.00;66.50;;;;;;5120838;28;20226;-60
2023/11/12 04:46:27;;;;;;;2.35;2.15;;;16.00;66.50;;;;;;5116369;28;20262;-61
2023/11/12 04:48:53;;;;;;;2.67;2.47;;;16.00;66.50;;;;;;5135751;27;20224;-60
2023/11/12 04:51:18;;;;;;;2.63;2.42;;;16.00;66.50;;;;;;5136861;27;20630;-61
2023/11/12 04:53:44;;;;;;;3.15;2.40;;;16.00;66.60;;;;;;5137803;27;20225;-60
2023/11/12 04:56:10;;;;;;;4.60;2.45;;;16.00;66.80;;;;;;5137583;27;20179;-60
2023/11/12 04:58:36;;;;;;;2.65;2.45;;;16.00;66.50;;;;;;5137104;27;20176;-60
2023/11/12 05:01:03;;;;;;;2.42;2.22;;;16.00;66.60;;;;;;5117840;27;20582;-60
2023/11/12 05:03:31;;;;;;;3.25;2.30;;;15.90;66.50;;;;;;5116769;28;20177;-60
2023/11/12 05:05:58;;;;;;;5.32;2.80;;;15.90;66.60;;;;;;5098551;28;20173;-61
2023/11/12 05:08:23;;;;;;;3.95;2.30;;;15.90;66.70;;;;;;5116885;28;20208;-61
2023/11/12 05:10:49;;;;;;;3.63;3.00;;;15.90;66.60;;;;;;5118239;27;20173;-60
2023/11/12 05:13:14;;;;;;;3.15;2.50;;;15.90;66.60;;;;;;5116796;27;20181;-60
2023/11/12 05:15:41;;;;;;;3.30;2.47;;;15.90;66.50;;;;;;5136948;27;20534;-59
2023/11/12 05:18:06;;;;;;;2.50;2.30;;;15.90;66.60;;;;;;5136464;27;20172;-60
2023/11/12 05:20:33;;;;;;;2.80;2.30;;;15.90;66.60;;;;;;5136401;27;20175;-59
2023/11/12 05:22:59;;;;;;;2.85;2.50;;;15.90;66.60;;;;;;5120056;27;20181;-60
2023/11/12 05:25:24;;;;;;;2.80;2.60;;;15.90;66.70;;;;;;5135796;27;20225;-60
2023/11/12 05:27:50;;;;;;;2.83;2.60;;;15.90;66.60;;;;;;5135081;27;20208;-60
2023/11/12 05:30:16;;;;;;;2.97;2.45;;;15.90;66.50;;;;;;5122817;27;20177;-59
2023/11/12 05:32:41;;;;;;;3.40;2.53;;;15.90;66.60;;;;;;5115871;28;20181;-59
2023/11/12 05:35:07;;;;;;;2.63;2.42;;;15.90;66.80;;;;;;5134442;27;20259;-60
2023/11/12 05:37:32;;;;;;;3.17;2.88;;;15.90;66.70;;;;;;5127604;27;20185;-59
2023/11/12 05:39:58;;;;;;;2.70;2.50;;;15.90;66.80;;;;;;5115734;27;20173;-60
2023/11/12 05:42:23;;;;;;;3.63;2.90;;;15.90;66.70;;;;;;5132553;27;20181;-60
2023/11/12 05:44:49;;;;;;;3.60;2.90;;;15.90;66.60;;;;;;5120493;27;20164;-60
2023/11/12 05:47:14;;;;;;;4.75;2.88;;;15.90;66.70;;;;;;5135234;27;20204;-60
2023/11/12 05:49:40;;;;;;;3.40;3.10;;;15.90;66.90;;;;;;5136180;27;20216;-60
2023/11/12 05:52:05;;;;;;;3.78;2.90;;;15.80;66.60;;;;;;5136505;27;20199;-60
2023/11/12 05:54:31;;;;;;;3.05;2.60;;;15.80;66.50;;;;;;5134997;27;20259;-61
2023/11/12 05:56:56;;;;;;;3.38;3.08;;;15.80;66.60;;;;;;5136011;27;20172;-62
2023/11/12 05:59:22;;;;;;;3.50;3.20;;;15.80;66.60;;;;;;5129305;27;20161;-60
2023/11/12 06:01:47;;;;;;;3.38;3.08;;;15.80;66.70;;;;;;5114205;28;20234;-60
2023/11/12 06:04:13;;;;;;;3.83;3.00;;;15.80;66.70;;;;;;5125842;27;20267;-59
2023/11/12 06:06:39;;;;;;;3.80;3.50;;;15.80;66.60;;;;;;5136183;27;20355;-60
2023/11/12 06:09:07;;;;;;;3.47;3.17;;;15.80;66.60;;;;;;5125942;27;20197;-60
2023/11/12 06:11:36;;;;;;;3.83;3.42;;;15.80;66.50;;;;;;5123914;27;20179;-61
2023/11/12 06:14:01;;;;;;;3.67;3.30;;;15.80;66.60;;;;;;5134074;27;20583;-61
2023/11/12 06:16:27;;;;;;;3.80;3.50;;;15.80;66.80;;;;;;5134944;27;20669;-60
2023/11/12 06:18:52;;;;;;;3.47;3.17;;;15.80;66.60;;;;;;5125521;27;20204;-60
2023/11/12 06:21:18;;;;;;;3.72;3.30;;;15.80;66.60;;;;;;5115425;27;20285;-60
2023/11/12 06:23:45;;;;;;;3.92;3.35;;;15.80;66.80;;;;;;5119373;27;20173;-60
2023/11/12 06:26:11;;;;;;;4.10;3.67;;;15.80;66.60;;;;;;5133691;27;20180;-60
2023/11/12 06:28:37;;;;;;;3.97;3.67;;;15.80;66.60;;;;;;5135425;27;20529;-59
2023/11/12 06:31:02;;;;;;;3.92;3.58;;;15.80;66.60;;;;;;5121152;27;20177;-60
2023/11/12 06:33:28;;;;;;;4.10;3.20;;;15.70;66.50;;;;;;5131179;27;20260;-59
2023/11/12 06:35:54;;;;;;;4.32;3.78;;;15.70;66.50;;;;;;5114407;28;20904;-59
2023/11/12 06:38:19;;;;;;;4.30;3.60;;;15.70;66.50;;;;;;5115857;27;20177;-59
2023/11/12 06:40:45;;;;;;;4.20;3.85;;;15.70;66.60;;;;;;5116129;27;20184;-59
2023/11/12 06:43:10;;;;;;;4.55;3.80;;;15.70;66.50;;;;;;5125232;27;20181;-59
2023/11/12 06:45:36;;;;;;;4.00;3.38;;;15.70;66.50;;;;;;5122891;27;20169;-60
2023/11/12 06:48:01;;;;;;;4.38;3.97;;;15.70;66.40;;;;;;5114091;28;20285;-60
2023/11/12 06:50:27;;;;;;;4.38;4.00;;;15.70;66.50;;;;;;5130164;27;20184;-60
2023/11/12 06:52:52;;;;;;;3.95;3.65;;;15.70;66.50;;;;;;5135478;27;20172;-60
2023/11/12 06:55:18;;;;;;;4.93;4.32;;;15.70;66.60;;;;;;5132579;27;20180;-60
2023/11/12 06:57:44;;;;;;;4.30;3.83;;;15.70;66.50;;;;;;5113953;28;20169;-60
2023/11/12 07:00:10;;;;;;;5.03;4.25;;;15.70;66.50;;;;;;5121358;27;20256;-59
2023/11/12 07:02:37;;;;;;;5.30;4.45;;;15.70;66.40;;;;;;5123174;27;20654;-60
2023/11/12 07:05:06;;;;;;;4.00;3.58;;;15.70;66.40;;;;;;5113585;27;20181;-60
2023/11/12 07:07:32;;;;;;;4.97;4.38;;;15.70;66.50;;;;;;5129001;27;20311;-60
2023/11/12 07:09:57;;;;;;;4.53;3.85;;;15.70;66.50;;;;;;5133040;27;20274;-59
2023/11/12 07:12:23;;;;;;;4.90;4.40;;;15.80;66.50;;;;;;5114650;27;20180;-60
2023/11/12 07:14:49;;;;;;;4.10;3.72;;;15.80;66.30;;;;;;5130038;27;20173;-60
2023/11/12 07:17:15;;;;;;;4.55;4.15;;;15.80;66.50;;;;;;5115263;27;20181;-61
2023/11/12 07:19:42;;;;;;;4.88;4.35;;;15.90;66.50;;;;;;5125124;27;20173;-60
2023/11/12 07:22:07;;;;;;;3.63;3.33;;;15.90;66.80;;;;;;5114072;28;20173;-61
2023/11/12 07:24:36;;;;;;;3.53;3.22;;;16.00;66.70;;;;;;5129417;27;20172;-60
2023/11/12 07:27:02;;;;;;;4.28;3.83;;;16.10;66.70;;;;;;5132997;27;20311;-61
2023/11/12 07:29:28;;;;;;;3.78;3.38;;;16.20;66.70;;;;;;5134158;27;20168;-59
2023/11/12 07:31:54;;;;;;;3.53;3.22;;;16.30;66.50;;;;;;5134174;27;20260;-60
2023/11/12 07:34:20;;;;;;;4.10;3.70;;;16.30;66.40;;;;;;5134300;27;20635;-60
2023/11/12 07:36:45;;;;;;;3.95;3.55;;;16.40;66.30;;;;;;5133350;27;20176;-60
2023/11/12 07:39:12;;;;;;;3.60;3.30;;;16.50;66.20;;;;;;5128662;27;20678;-60
2023/11/12 07:41:38;;;;;;;4.65;3.25;;;16.50;66.10;;;;;;5121713;27;20196;-60
2023/11/12 07:44:05;;;;;;;3.92;3.53;;;16.60;65.90;;;;;;5121578;27;20231;-61
2023/11/12 07:46:30;;;;;;;5.07;3.33;;;16.70;65.80;;;;;;5128725;27;20240;-60
2023/11/12 07:48:56;;;;;;;3.53;3.22;;;16.70;65.70;;;;;;5115820;27;20225;-61
2023/11/12 07:51:22;;;;;;;3.17;2.88;;;16.80;65.60;;;;;;5124235;27;20172;-61
2023/11/12 07:53:48;;;;;;;5.03;3.70;;;16.80;65.50;;;;;;5133470;27;20217;-61
2023/11/12 07:56:14;;;;;;;3.55;3.25;;;16.90;65.50;;;;;;5126617;27;20544;-60
2023/11/12 07:58:40;;;;;;;3.92;3.35;;;16.90;65.40;;;;;;5113535;28;20195;-60
2023/11/12 08:01:05;;;;;;;4.00;3.40;;;16.90;65.20;;;;;;5113901;27;20631;-60
2023/11/12 08:03:32;;;;;;;3.78;3.38;;;16.90;65.10;;;;;;5113538;27;20281;-60
2023/11/12 08:05:57;;;;;;;3.75;3.45;;;16.90;65.10;;;;;;5113671;28;20234;-62
2023/11/12 08:08:23;;;;;;;3.35;3.10;;;16.90;65.10;;;;;;5117144;27;20628;-61
2023/11/12 08:10:49;;;;;;;3.67;3.38;;;16.80;65.20;;;;;;5132269;27;20164;-62
2023/11/12 08:13:15;;;;;;;3.53;3.22;;;16.80;65.30;;;;;;5131464;27;20661;-60
2023/11/12 08:15:41;;;;;;;3.47;3.17;;;16.80;66.20;;;;;;5121673;27;20184;-59
2023/11/12 08:18:07;;;;;;;3.80;3.50;;;16.70;65.50;;;;;;5124238;27;20181;-61
2023/11/12 08:20:34;;;;;;;3.95;3.17;;;16.70;65.70;;;;;;5125376;27;20581;-60
2023/11/12 08:23:00;;;;;;;3.67;3.38;;;16.60;65.70;;;;;;5132834;28;20184;-61
2023/11/12 08:25:25;;;;;;;3.90;3.60;;;16.60;66.10;;;;;;5132063;28;20224;-61
2023/11/12 08:27:51;;;;;;;3.33;3.03;;;16.50;66.00;;;;;;5133305;28;20211;-60
2023/11/12 08:30:18;;;;;;;3.95;3.60;;;16.50;66.20;;;;;;5132417;28;20185;-60
2023/11/12 08:32:44;;;;;;;3.55;3.25;;;16.50;66.30;;;;;;5131675;28;20228;-60
2023/11/12 08:35:09;;;;;;;3.83;3.45;;;16.50;66.40;;;;;;5112500;28;20256;-60
2023/11/12 08:37:35;;;;;;;3.45;3.15;;;16.50;66.50;;;;;;5112760;28;20180;-60
2023/11/12 08:40:02;;;;;;;4.00;3.30;;;16.50;66.40;;;;;;5112656;28;20209;-62
2023/11/12 08:42:28;;;;;;;4.22;3.83;;;16.50;66.40;;;;;;5098026;28;20686;-60
2023/11/12 08:44:54;;;;;;;3.50;3.20;;;16.50;66.40;;;;;;5129105;28;20176;-61
2023/11/12 08:47:20;;;;;;;3.75;3.35;;;16.50;66.40;;;;;;5113250;28;20581;-62
2023/11/12 08:49:45;;;;;;;4.43;3.85;;;16.50;66.60;;;;;;5112223;28;20353;-61
2023/11/12 08:52:14;;;;;;;3.85;3.42;;;16.40;66.50;;;;;;5112745;28;20263;-61
2023/11/12 08:54:40;;;;;;;4.00;3.63;;;16.40;66.80;;;;;;5113143;28;20179;-61
2023/11/12 08:57:06;;;;;;;4.07;3.40;;;16.40;66.80;;;;;;5112156;28;20536;-61
2023/11/12 08:59:31;;;;;;;4.13;3.72;;;16.40;66.90;;;;;;5113181;28;20601;-60
2023/11/12 09:01:57;;;;;;;4.10;3.47;;;16.40;66.80;;;;;;5113017;28;20576;-60
2023/11/12 09:04:22;;;;;;;3.38;3.08;;;16.40;66.80;;;;;;5130547;28;20506;-60
2023/11/12 09:06:48;;;;;;;4.35;3.70;;;16.50;66.70;;;;;;5133181;28;20670;-61
2023/11/12 09:09:15;;;;;;;4.25;3.85;;;16.50;66.70;;;;;;5132948;28;20169;-61
2023/11/12 09:11:41;;;;;;;4.15;3.22;;;16.40;66.80;;;;;;5131867;28;20567;-61
2023/11/12 09:14:07;;;;;;;4.10;3.70;;;16.40;66.90;;;;;;5112651;28;20660;-61
2023/11/12 09:16:33;;;;;;;3.50;3.20;;;16.40;67.00;;;;;;5112205;28;20177;-60
2023/11/12 09:19:00;;;;;;;4.30;3.90;;;16.40;67.10;;;;;;5111684;28;20173;-60
2023/11/12 09:21:26;;;;;;;4.28;3.42;;;16.30;67.20;;;;;;5129009;28;20192;-60
2023/11/12 09:23:52;;;;;;;3.85;3.47;;;16.30;67.30;;;;;;5130925;28;20187;-61
2023/11/12 09:26:20;;;;;;;6.15;3.78;;;16.30;67.20;;;;;;5131403;28;20470;-60
2023/11/12 09:28:46;;;;;;;5.07;3.30;;;16.40;67.20;;;;;;5116491;28;20181;-59
2023/11/12 09:31:12;;;;;;;3.42;3.13;;;16.40;67.10;;;;;;5123665;27;20192;-59
2023/11/12 09:33:38;;;;;;;3.65;3.35;;;16.40;67.00;;;;;;5135750;27;20184;-61
2023/11/12 09:36:04;;;;;;;4.40;4.00;;;16.40;67.20;;;;;;5108852;28;20177;-60
2023/11/12 09:38:30;;;;;;;3.95;3.65;;;16.40;67.10;;;;;;5114325;28;20165;-60
2023/11/12 09:40:58;;;;;;;3.80;3.33;;;16.40;67.20;;;;;;5119999;27;20181;-61
2023/11/12 09:43:25;;;;;;;3.95;3.30;;;16.40;67.40;;;;;;5098088;28;20315;-61
2023/11/12 09:45:54;;;;;;;6.43;3.67;;;16.40;67.40;;;;;;5113572;27;20900;-61
2023/11/12 09:48:32;;;;;;;3.65;3.35;;;16.40;67.70;;;;;;5081577;28;20216;-60
2023/11/12 09:50:58;;;;;;;4.72;3.92;;;16.40;67.60;;;;;;5097574;28;20523;-61
2023/11/12 09:53:24;;;;;;;3.95;3.42;;;16.40;67.50;;;;;;5100566;27;20181;-61
2023/11/12 09:55:49;;;;;;;3.92;3.47;;;16.40;67.40;;;;;;5134575;27;20177;-61
2023/11/12 09:58:16;;;;;;;3.53;3.22;;;16.40;67.40;;;;;;5136137;27;20170;-61
2023/11/12 10:00:43;;;;;;;4.28;3.70;;;16.40;67.30;;;;;;5134108;27;20552;-60
2023/11/12 10:03:08;;;;;;;3.53;3.03;;;16.40;67.40;;;;;;5098106;27;20177;-61
2023/11/12 10:05:35;;;;;;;4.13;3.75;;;16.40;67.50;;;;;;5136401;27;20176;-60
2023/11/12 10:08:00;;;;;;;5.25;3.50;;;16.40;67.50;;;;;;5135000;27;20212;-62
2023/11/12 10:10:27;;;;;;;5.47;3.50;;;16.30;67.60;;;;;;5116876;27;20661;-60
2023/11/12 10:12:55;;;;;;;3.78;3.33;;;16.30;67.70;;;;;;5115721;28;20718;-61
2023/11/12 10:15:23;;;;;;;4.13;3.60;;;16.30;67.80;;;;;;5135169;27;20173;-60
2023/11/12 10:17:49;;;;;;;4.35;3.40;;;16.30;67.70;;;;;;5121052;27;20181;-60
2023/11/12 10:20:21;;;;;;;5.20;3.83;;;16.30;67.80;;;;;;5121713;27;20540;-60
2023/11/12 10:22:47;;;;;;;4.45;3.80;;;16.30;67.90;;;;;;5133465;27;20267;-61
2023/11/12 10:25:13;;;;;;;3.40;3.10;;;16.30;67.90;;;;;;5129698;27;20256;-60
2023/11/12 10:27:53;;;;;;;3.72;3.42;;;16.20;68.00;;;;;;5124520;27;20253;-60
2023/11/12 10:30:20;;;;;;;3.20;2.92;;;16.20;68.00;;;;;;5121595;27;20548;-60
2023/11/12 10:32:45;;;;;;;4.22;3.17;;;16.20;68.20;;;;;;5133625;27;20177;-59
2023/11/12 10:35:12;;;;;;;3.97;3.13;;;16.20;68.40;;;;;;5115451;27;20177;-59
2023/11/12 10:37:56;;;;;;;3.42;3.13;;;16.30;68.30;;;;;;5096920;28;20663;-64
2023/11/12 10:40:23;;;;;;;4.25;3.35;;;16.20;68.40;;;;;;5115276;27;20202;-59
2023/11/12 10:42:50;;;;;;;3.88;3.42;;;16.20;68.40;;;;;;5117397;27;20540;-59
2023/11/12 10:45:18;;;;;;;3.58;3.28;;;16.20;68.20;;;;;;5134077;27;20176;-59
2023/11/12 10:47:46;;;;;;;4.63;3.53;;;16.30;68.30;;;;;;5129303;27;20574;-59
2023/11/12 10:50:15;;;;;;;4.00;3.65;;;16.20;68.10;;;;;;5113684;28;20181;-60
2023/11/12 10:52:42;;;;;;;4.65;3.38;;;16.20;68.20;;;;;;5097056;28;20191;-60
2023/11/12 10:55:09;;;;;;;3.45;3.13;;;16.20;68.30;;;;;;5114550;28;20177;-61
2023/11/12 10:57:35;;;;;;;3.33;3.00;;;16.20;68.70;;;;;;5113814;28;20658;-60
2023/11/12 11:00:01;;;;;;;3.85;3.33;;;16.20;68.60;;;;;;5103198;27;20181;-60
2023/11/12 11:02:32;;;;;;;3.95;3.50;;;16.20;68.60;;;;;;5100189;27;20224;-60
2023/11/12 11:04:57;;;;;;;3.60;3.15;;;16.20;68.60;;;;;;5116646;27;20210;-61
2023/11/12 11:07:23;;;;;;;3.35;2.88;;;16.20;68.50;;;;;;5115509;27;20300;-60
2023/11/12 11:09:49;;;;;;;3.78;2.92;;;16.20;68.50;;;;;;5134680;27;20172;-60
2023/11/12 11:12:14;;;;;;;3.78;3.10;;;16.20;69.40;;;;;;5133569;27;20560;-60
2023/11/12 11:14:40;;;;;;;3.58;3.28;;;16.20;68.90;;;;;;5083057;27;20742;-60
2023/11/12 11:17:06;;;;;;;3.60;3.30;;;16.10;68.70;;;;;;5134177;27;20251;-60
2023/11/12 11:19:51;;;;;;;3.28;2.97;;;16.20;68.70;;;;;;5118329;27;20654;-60
2023/11/12 11:22:27;;;;;;;4.32;3.33;;;16.20;68.60;;;;;;5133830;27;20203;-60
2023/11/12 11:24:54;;;;;;;3.42;3.13;;;16.20;68.60;;;;;;5113549;28;20207;-60
2023/11/12 11:27:21;;;;;;;3.00;2.70;;;16.10;68.30;;;;;;5113267;28;20227;-60
2023/11/12 11:30:08;;;;;;;2.88;2.67;;;16.20;68.40;;;;;;5114529;27;20639;-59
2023/11/12 11:32:34;;;;;;;3.00;2.70;;;16.20;68.30;;;;;;5113180;28;20222;-60
2023/11/12 11:35:01;;;;;;;2.97;2.60;;;16.20;68.20;;;;;;5133555;27;20244;-60
2023/11/12 11:38:04;;;;;;;3.67;2.90;;;16.20;68.20;;;;;;5096122;28;20189;-60
2023/11/12 11:40:30;;;;;;;3.78;2.80;;;16.20;68.20;;;;;;5113883;28;20585;-60
2023/11/12 11:43:21;;;;;;;4.65;2.75;;;16.20;68.30;;;;;;5116718;27;20225;-60
2023/11/12 11:46:05;;;;;;;3.22;2.92;;;16.30;68.70;;;;;;5123426;27;20185;-61
2023/11/12 11:48:30;;;;;;;4.75;2.58;;;16.30;68.80;;;;;;5129628;27;20250;-61
2023/11/12 11:50:57;;;;;;;3.17;2.47;;;16.30;68.50;;;;;;5131340;27;20647;-60
2023/11/12 11:53:26;;;;;;;4.45;2.85;;;16.30;68.70;;;;;;5112754;28;20708;-61
2023/11/12 11:55:59;;;;;;;5.55;2.92;;;16.30;68.90;;;;;;5120441;27;20172;-62
2023/11/12 11:58:25;;;;;;;3.83;3.08;;;16.30;68.80;;;;;;5130417;27;20173;-61
2023/11/12 12:01:00;;;;;;;4.22;3.13;;;16.40;69.00;;;;;;5102429;27;20172;-60
2023/11/12 12:03:26;;;;;;;4.50;3.22;;;16.30;68.70;;;;;;5121708;27;20172;-63
2023/11/12 12:05:52;;;;;;;4.07;3.22;;;16.40;68.80;;;;;;5113531;28;20176;-62
2023/11/12 12:08:18;;;;;;;6.63;3.22;;;16.40;69.00;;;;;;5123246;27;20243;-62
2023/11/12 12:10:45;;;;;;;8.70;3.60;;;16.40;69.10;;;;;;5132237;27;20207;-62
2023/11/12 12:13:11;;;;;;;7.47;3.53;;;16.40;69.30;;;;;;5132825;27;20250;-71
2023/11/12 12:15:37;;;;;;;14.38;3.33;;;16.50;69.20;;;;;;5122074;27;20233;-66
2023/11/12 12:18:25;;;;;;;6.40;3.40;;;16.60;69.40;;;;;;5097752;28;20581;-68
2023/11/12 12:20:55;;;;;;;9.45;3.92;;;16.70;69.50;;;;;;5119964;27;20168;-68
2023/11/12 12:23:21;;;;;;;6.90;3.03;;;16.70;69.50;;;;;;5133445;27;20180;-68
2023/11/12 12:25:52;;;;;;;5.53;4.10;;;16.70;69.60;;;;;;5133785;27;20164;-68
2023/11/12 12:28:20;;;;;;;9.38;3.95;;;16.80;69.90;;;;;;5132529;27;20220;-68
2023/11/12 12:30:52;;;;;;;7.10;4.00;;;16.80;69.90;;;;;;5133509;28;20168;-68
2023/11/12 12:33:18;;;;;;;6.40;3.70;;;16.80;70.10;;;;;;5127882;28;20642;-68
2023/11/12 12:35:43;;;;;;;7.72;3.85;;;16.80;70.10;;;;;;5114972;28;20203;-66
2023/11/12 12:38:09;;;;;;;4.43;3.63;;;16.80;70.10;;;;;;5122415;28;20176;-69
2023/11/12 12:40:34;;;;;;;9.45;3.47;;;16.90;70.00;;;;;;5133298;28;20506;-67
2023/11/12 12:43:00;;;;;;;7.20;3.92;;;16.90;70.20;;;;;;5120324;28;20215;-69
2023/11/12 12:45:25;;;;;;;7.88;4.10;;;16.90;70.00;;;;;;5113065;28;20173;-69